< < Back
Terminal Aerodrome Forecast


Current Version              Previous Versions:   1  2  3  4  5  6  7  8  9  

Terminal Aerodrome Forecast

050
FTUS44 KMOB 161700
TAFPNS
TAF
KPNS 161720Z 1618/1718 10008KT P6SM SKC
     FM170000 14008KT P6SM SKC
     FM170700 09007KT P6SM BKN015=

Latest METAR

803
SAUS70 KWBC 170900 RRA
MTRPNS
METAR KPNS 170853Z AUTO 07007KT 10SM SCT022 BKN037 13/09 A3017 RMK AO2
SLP218 T01330089 53000


USA.gov is the U.S. government's official web portal to all federal, state and local government web resources and services.